Time;durP1;ratioP1;P1;durP2;ratioP2;P2;SDS_P1;SDS_P2;PMS_P1;PMS_P2;Temp;Humidity;BMP_temperature;BMP_pressure;BME280_temperature;BME280_humidity;BME280_pressure;Samples;Min_cycle;Max_cycle;Signal;HPM_P1;HPM_P2
2023/08/28 00:01:38;;;;;;;3.47;2.90;;;;;;;15.09;85.58;100029.75;5053971;28;20216;-74
2023/08/28 00:04:05;;;;;;;2.90;2.70;;;;;;;15.10;85.20;100018.28;5054160;28;20216;-73
2023/08/28 00:06:33;;;;;;;3.13;2.93;;;;;;;15.13;85.14;100023.44;5053979;28;20319;-74
2023/08/28 00:08:59;;;;;;;4.80;2.67;;;;;;;15.09;85.35;100009.56;5054145;28;20206;-73
2023/08/28 00:11:26;;;;;;;3.20;2.90;;;;;;;15.10;85.38;100018.28;5053984;28;20205;-74
2023/08/28 00:13:53;;;;;;;3.30;2.90;;;;;;;15.09;85.39;100014.81;5053901;28;20227;-74
2023/08/28 00:16:19;;;;;;;2.93;2.70;;;;;;;15.04;85.26;100018.56;5053870;28;20205;-74
2023/08/28 00:18:46;;;;;;;3.20;3.00;;;;;;;15.04;85.42;100011.56;5053959;28;20709;-74
2023/08/28 00:21:12;;;;;;;4.07;3.43;;;;;;;15.01;85.20;99995.91;5053934;28;20209;-74
2023/08/28 00:23:40;;;;;;;2.97;2.80;;;;;;;15.00;85.61;99999.44;5054194;28;20232;-74
2023/08/28 00:26:07;;;;;;;3.50;3.20;;;;;;;14.96;85.89;99994.41;5053778;28;20233;-74
2023/08/28 00:28:34;;;;;;;2.90;2.70;;;;;;;14.92;85.93;100004.19;5053536;28;20667;-74
2023/08/28 00:31:00;;;;;;;2.93;2.73;;;;;;;14.96;85.86;100004.91;5053549;28;20218;-74
2023/08/28 00:33:27;;;;;;;2.70;2.50;;;;;;;14.95;85.58;100016.38;5053790;28;20229;-74
2023/08/28 00:35:53;;;;;;;3.37;3.07;;;;;;;14.95;85.70;100008.47;5053845;28;20205;-75
2023/08/28 00:38:20;;;;;;;3.47;3.27;;;;;;;14.93;85.86;100010.31;5053456;28;20217;-74
2023/08/28 00:40:47;;;;;;;3.07;2.87;;;;;;;14.91;85.97;100010.38;5053168;28;20202;-75
2023/08/28 00:43:14;;;;;;;3.73;3.00;;;;;;;14.85;85.96;100001.00;5053271;28;20240;-74
2023/08/28 00:45:43;;;;;;;3.63;3.33;;;;;;;14.70;86.62;99989.34;5053580;28;20302;-74
2023/08/28 00:48:11;;;;;;;4.00;3.73;;;;;;;14.80;86.63;99986.34;5053169;28;20209;-74
2023/08/28 00:50:38;;;;;;;4.20;3.90;;;;;;;14.68;86.83;99985.94;5053263;28;20217;-74
2023/08/28 00:53:05;;;;;;;3.93;3.70;;;;;;;14.66;86.94;99976.44;5053283;28;20236;-74
2023/08/28 00:55:35;;;;;;;4.17;3.83;;;;;;;14.69;87.18;99971.91;5053184;28;20211;-74
2023/08/28 00:58:04;;;;;;;4.40;4.10;;;;;;;14.77;86.45;99982.09;5053032;28;20240;-74
2023/08/28 01:00:30;;;;;;;4.37;4.07;;;;;;;14.78;86.60;99986.41;5053176;28;20212;-75
2023/08/28 01:02:57;;;;;;;4.13;3.87;;;;;;;14.81;86.28;99998.56;5052931;28;20785;-74
2023/08/28 01:05:31;;;;;;;4.30;3.90;;;;;;;14.66;86.92;99990.41;5053110;28;20588;-75
2023/08/28 01:08:03;;;;;;;4.90;4.37;;;;;;;14.59;87.02;99983.72;5052981;28;20219;-74
2023/08/28 01:10:38;;;;;;;4.47;4.17;;;;;;;14.62;87.20;99978.31;5053231;28;20205;-74
2023/08/28 01:13:12;;;;;;;4.90;4.60;;;;;;;14.64;86.81;99978.28;5052898;28;20247;-74
2023/08/28 01:15:39;;;;;;;5.47;5.07;;;;;;;14.54;87.44;99972.53;5052933;28;20215;-74
2023/08/28 01:18:07;;;;;;;5.73;5.33;;;;;;;14.52;87.78;99971.75;5052838;28;20212;-75
2023/08/28 01:20:36;;;;;;;6.57;6.17;;;;;;;14.50;87.98;99963.91;5052745;28;20299;-74
2023/08/28 01:23:19;;;;;;;6.80;6.40;;;;;;;14.40;88.76;99954.72;5052494;28;20222;-74
2023/08/28 01:25:47;;;;;;;6.47;5.97;;;;;;;14.49;88.65;99956.97;5052938;28;20229;-73
2023/08/28 01:28:14;;;;;;;7.47;6.73;;;;;;;14.37;89.51;99944.38;5052536;28;20585;-73
2023/08/28 01:30:40;;;;;;;6.67;6.23;;;;;;;14.32;90.09;99934.97;5052421;28;20208;-75
2023/08/28 01:33:07;;;;;;;6.97;6.47;;;;;;;14.30;89.74;99933.25;5052246;28;20236;-76
2023/08/28 01:35:34;;;;;;;7.77;7.23;;;;;;;14.31;90.40;99923.63;5052872;28;20208;-76
2023/08/28 01:38:12;;;;;;;7.43;6.93;;;;;;;14.33;90.19;99924.44;5052522;28;20584;-76
2023/08/28 01:40:41;;;;;;;8.10;7.60;;;;;;;14.02;91.42;99919.59;5052394;28;20217;-76
2023/08/28 01:43:12;;;;;;;8.03;7.50;;;;;;;14.27;91.25;99899.28;5052443;28;20229;-76
2023/08/28 01:45:39;;;;;;;8.40;7.70;;;;;;;14.40;90.16;99909.25;5052220;28;20208;-76
2023/08/28 01:48:06;;;;;;;8.10;7.50;;;;;;;14.32;90.02;99922.69;5052509;28;20239;-75
2023/08/28 01:50:33;;;;;;;8.23;7.63;;;;;;;14.46;90.13;99925.56;5052240;28;20208;-76
2023/08/28 01:53:00;;;;;;;7.60;7.03;;;;;;;14.55;89.40;99937.47;5051600;28;20236;-73
2023/08/28 01:56:14;;;;;;;7.60;7.00;;;;;;;14.58;89.24;99953.13;5052388;28;20573;-73
2023/08/28 01:58:43;;;;;;;8.07;7.57;;;;;;;14.63;88.61;99963.44;5052183;28;20211;-73
2023/08/28 02:01:10;;;;;;;8.10;7.50;;;;;;;14.57;88.85;99969.81;5052163;28;20208;-73
2023/08/28 02:03:38;;;;;;;8.20;7.60;;;;;;;14.52;89.11;99965.63;5051984;28;20286;-73
2023/08/28 02:06:05;;;;;;;8.03;7.43;;;;;;;14.59;88.90;99969.72;5051893;28;20595;-73
2023/08/28 02:08:32;;;;;;;8.17;7.60;;;;;;;14.60;88.54;99977.53;5051805;28;20231;-73
2023/08/28 02:10:58;;;;;;;8.63;7.90;;;;;;;14.62;88.13;99980.13;5051792;28;20228;-73
2023/08/28 02:13:25;;;;;;;8.73;8.13;;;;;;;14.65;88.28;99983.47;5051690;28;20247;-73
2023/08/28 02:15:53;;;;;;;8.73;7.93;;;;;;;14.63;88.25;99984.47;5051987;28;20335;-73
2023/08/28 02:18:20;;;;;;;9.20;8.50;;;;;;;14.44;89.08;99965.97;5051687;28;20219;-73
2023/08/28 02:20:47;;;;;;;9.03;8.33;;;;;;;14.53;88.70;99965.59;5051764;28;20205;-73
2023/08/28 02:23:13;;;;;;;9.27;8.57;;;;;;;14.62;88.56;99972.22;5051597;28;20226;-73
2023/08/28 02:25:41;;;;;;;9.07;8.33;;;;;;;14.62;88.36;99975.69;5051858;28;20378;-73
2023/08/28 02:28:08;;;;;;;8.70;7.90;;;;;;;14.60;88.63;99976.69;5051902;28;20208;-73
2023/08/28 02:30:34;;;;;;;7.50;7.00;;;;;;;14.65;88.15;99972.97;5051608;28;20206;-74
2023/08/28 02:33:02;;;;;;;8.80;8.10;;;;;;;14.43;88.62;99978.25;5051609;28;20225;-73
2023/08/28 02:35:29;;;;;;;9.40;8.70;;;;;;;14.50;89.19;99968.31;5051925;28;20208;-73
2023/08/28 02:37:55;;;;;;;9.57;8.77;;;;;;;14.60;88.53;99971.44;5051695;28;20215;-73
2023/08/28 02:40:22;;;;;;;8.53;7.93;;;;;;;14.58;88.12;99978.53;5051466;28;20683;-73
2023/08/28 02:42:48;;;;;;;8.73;8.13;;;;;;;14.56;87.91;99980.34;5051649;28;20602;-73
2023/08/28 02:45:15;;;;;;;9.43;8.63;;;;;;;14.55;88.30;99978.63;5051610;28;20218;-73
2023/08/28 02:47:42;;;;;;;8.70;8.10;;;;;;;14.27;88.98;99980.66;5051318;28;20231;-73
2023/08/28 02:50:10;;;;;;;8.57;7.87;;;;;;;14.29;89.26;99962.19;5051444;28;20219;-73
2023/08/28 02:52:37;;;;;;;9.47;8.77;;;;;;;14.09;90.48;99932.41;5051653;28;20732;-73
2023/08/28 02:55:03;;;;;;;9.40;8.80;;;;;;;13.83;92.90;99875.75;5051399;28;20219;-73
2023/08/28 02:57:30;;;;;;;10.50;9.73;;;;;;;13.69;94.67;99857.94;5051456;28;20218;-75
2023/08/28 02:59:56;;;;;;;7.63;7.03;;;;;;;13.95;93.73;99844.66;5051585;28;20212;-76
2023/08/28 03:02:23;;;;;;;6.70;6.20;;;;;;;14.07;92.67;99868.63;5051225;28;20233;-76
2023/08/28 03:04:49;;;;;;;6.70;6.20;;;;;;;14.14;92.41;99877.09;5053043;28;20666;-76
2023/08/28 03:07:19;;;;;;;8.53;7.93;;;;;;;14.04;92.49;99892.38;5055070;28;20737;-76
2023/08/28 03:09:47;;;;;;;8.13;7.53;;;;;;;14.20;91.74;99907.47;5055310;28;20206;-76
2023/08/28 03:12:13;;;;;;;7.37;6.87;;;;;;;14.27;90.92;99922.03;5055029;28;20228;-75
2023/08/28 03:14:40;;;;;;;8.17;7.53;;;;;;;14.29;90.65;99934.19;5055009;28;20220;-76
2023/08/28 03:17:06;;;;;;;8.57;7.97;;;;;;;14.29;90.48;99951.69;5055003;28;20207;-73
2023/08/28 03:19:33;;;;;;;8.87;8.27;;;;;;;14.33;90.60;99960.31;5054888;28;20684;-73
2023/08/28 03:21:59;;;;;;;9.57;8.77;;;;;;;14.32;90.22;99977.84;5054759;28;20710;-75
2023/08/28 03:24:27;;;;;;;8.93;8.10;;;;;;;14.30;90.41;99975.25;5055057;28;20223;-76
2023/08/28 03:26:54;;;;;;;9.57;8.77;;;;;;;14.22;90.96;99971.25;5054966;28;20242;-76
2023/08/28 03:29:20;;;;;;;9.97;9.20;;;;;;;14.25;91.13;99964.13;5054834;28;20207;-76
2023/08/28 03:31:47;;;;;;;9.77;9.07;;;;;;;14.23;91.06;99968.59;5054775;28;20236;-73
2023/08/28 03:34:13;;;;;;;11.53;10.63;;;;;;;14.26;91.35;99957.94;5054883;28;20219;-75
2023/08/28 03:36:41;;;;;;;10.30;9.50;;;;;;;14.26;91.30;99965.81;5054881;28;20211;-76
2023/08/28 03:39:08;;;;;;;10.80;10.10;;;;;;;14.25;91.18;99950.13;5054737;28;20208;-76
2023/08/28 03:41:36;;;;;;;11.00;10.20;;;;;;;14.23;91.63;99947.59;5054534;28;20212;-76
2023/08/28 03:44:03;;;;;;;12.37;11.23;;;;;;;14.23;91.85;99938.84;5054437;28;20231;-76
2023/08/28 03:46:29;;;;;;;12.57;11.33;;;;;;;14.25;91.80;99932.63;5054324;28;20228;-76
2023/08/28 03:48:56;;;;;;;12.50;11.53;;;;;;;14.23;91.63;99928.34;5054675;28;20208;-76
2023/08/28 03:51:22;;;;;;;12.03;11.13;;;;;;;14.25;91.62;99922.13;5054293;28;20209;-76
2023/08/28 03:53:49;;;;;;;11.53;10.70;;;;;;;14.24;91.07;99930.06;5054522;28;20228;-76
2023/08/28 03:56:15;;;;;;;12.20;11.03;;;;;;;14.26;91.16;99925.59;5054712;28;20208;-76
2023/08/28 03:58:43;;;;;;;13.03;11.93;;;;;;;14.26;90.80;99931.69;5054152;28;20690;-73
2023/08/28 04:01:09;;;;;;;13.43;12.37;;;;;;;14.30;90.23;99929.78;5053981;28;20216;-73
2023/08/28 04:03:36;;;;;;;12.83;11.77;;;;;;;14.15;91.27;99926.03;5054342;28;20228;-75
2023/08/28 04:06:03;;;;;;;13.43;12.30;;;;;;;14.23;91.00;99908.22;5054406;28;20205;-76
2023/08/28 04:08:29;;;;;;;13.40;12.40;;;;;;;14.30;90.85;99911.41;5053909;28;20247;-76
2023/08/28 04:10:58;;;;;;;12.73;11.63;;;;;;;14.33;90.23;99923.53;5053982;28;20211;-76
2023/08/28 04:13:25;;;;;;;13.40;12.33;;;;;;;14.33;89.99;99948.06;5053693;28;20714;-76
2023/08/28 04:15:53;;;;;;;12.73;11.83;;;;;;;14.33;89.85;99947.19;5053692;28;20220;-76
2023/08/28 04:18:20;;;;;;;12.03;11.03;;;;;;;14.29;89.58;99949.06;5054032;28;20203;-76
2023/08/28 04:20:46;;;;;;;11.67;10.83;;;;;;;14.27;89.88;99956.16;5053972;28;20209;-76
2023/08/28 04:23:13;;;;;;;12.83;11.83;;;;;;;14.21;90.62;99946.78;5053941;28;20710;-76
2023/08/28 04:25:40;;;;;;;12.57;11.57;;;;;;;14.22;90.90;99937.97;5054048;28;20205;-76
2023/08/28 04:28:06;;;;;;;12.73;11.67;;;;;;;14.19;90.89;99938.13;5053430;28;20233;-76
2023/08/28 04:30:33;;;;;;;11.63;10.83;;;;;;;14.16;91.22;99933.00;5053772;28;20690;-76
2023/08/28 04:33:01;;;;;;;12.63;11.73;;;;;;;14.09;92.07;99913.16;5053711;28;20732;-76
2023/08/28 04:35:27;;;;;;;14.17;11.40;;;;;;;14.20;91.82;99902.22;5050447;28;20220;-76
2023/08/28 04:37:54;;;;;;;12.33;11.43;;;;;;;14.24;91.76;99906.44;5053511;28;20204;-75
2023/08/28 04:40:20;;;;;;;12.60;11.70;;;;;;;14.25;91.79;99906.38;5053030;28;20218;-75
2023/08/28 04:42:47;;;;;;;13.30;12.30;;;;;;;14.22;92.06;99903.84;5045331;28;20229;-75
2023/08/28 04:45:13;;;;;;;13.10;12.20;;;;;;;14.18;92.41;99904.06;5043109;28;20201;-75
2023/08/28 04:47:40;;;;;;;13.43;12.30;;;;;;;14.25;92.55;99893.25;5043938;28;20341;-76
2023/08/28 04:50:09;;;;;;;12.47;11.37;;;;;;;14.17;92.96;99884.84;5043972;28;20205;-74
2023/08/28 04:52:35;;;;;;;12.70;11.50;;;;;;;14.12;93.53;99868.44;5043118;28;20678;-74
2023/08/28 04:55:02;;;;;;;13.60;12.23;;;;;;;14.18;93.71;99852.41;5041593;28;20202;-74
2023/08/28 04:57:28;;;;;;;11.90;10.90;;;;;;;14.28;93.24;99866.00;5041177;28;20206;-74
2023/08/28 04:59:55;;;;;;;10.97;10.10;;;;;;;14.26;93.25;99873.94;5047484;28;20212;-74
2023/08/28 05:02:21;;;;;;;11.30;10.50;;;;;;;14.25;93.37;99882.75;5052876;28;20240;-74
2023/08/28 05:04:48;;;;;;;11.17;10.27;;;;;;;14.29;93.25;99897.44;5053040;28;20686;-74
2023/08/28 05:07:16;;;;;;;10.77;9.97;;;;;;;14.32;93.22;99896.44;5052621;28;20228;-74
2023/08/28 05:09:42;;;;;;;12.20;10.90;;;;;;;14.32;92.98;99900.84;5052735;28;20208;-74
2023/08/28 05:12:09;;;;;;;11.20;10.40;;;;;;;14.32;93.40;99896.44;5052723;28;20237;-74
2023/08/28 05:14:36;;;;;;;11.50;10.60;;;;;;;14.32;93.42;99900.84;5052792;28;20234;-74
2023/08/28 05:17:02;;;;;;;12.93;11.70;;;;;;;14.25;94.01;99893.25;5041690;28;20196;-74
2023/08/28 05:19:29;;;;;;;11.83;11.03;;;;;;;14.37;93.69;99888.34;5043389;28;20216;-74
2023/08/28 05:21:55;;;;;;;12.03;10.90;;;;;;;14.48;93.71;99901.88;5041381;28;20233;-74
2023/08/28 05:24:24;;;;;;;12.03;10.97;;;;;;;14.56;94.57;99894.53;5041774;28;20217;-74
2023/08/28 05:26:51;;;;;;;12.17;11.07;;;;;;;14.63;93.19;99905.66;5042335;28;20210;-74
2023/08/28 05:29:17;;;;;;;23.27;13.87;;;;;;;14.66;92.67;99921.25;5039622;28;20201;-74
2023/08/28 05:31:44;;;;;;;16.93;13.23;;;;;;;14.56;93.61;99915.56;5042778;28;20206;-74
2023/08/28 05:34:10;;;;;;;26.17;23.57;;;;;;;14.54;94.07;99919.16;5040688;28;20687;-74
2023/08/28 05:36:37;;;;;;;13.60;12.50;;;;;;;14.58;94.49;99892.72;5042121;28;20582;-74
2023/08/28 05:39:04;;;;;;;12.33;11.33;;;;;;;14.69;93.80;99900.97;5042738;28;20228;-74
2023/08/28 05:41:32;;;;;;;12.27;11.37;;;;;;;14.71;93.76;99906.16;5042454;28;20202;-74
2023/08/28 05:43:59;;;;;;;22.50;17.60;;;;;;;14.74;94.05;99903.38;5041823;28;20212;-74
2023/08/28 05:46:25;;;;;;;13.60;12.60;;;;;;;14.80;93.57;99905.72;5040976;28;20573;-74
2023/08/28 05:48:52;;;;;;;19.47;13.63;;;;;;;14.81;93.34;99909.25;5042666;28;20630;-74
2023/08/28 05:51:18;;;;;;;11.93;11.23;;;;;;;14.92;93.40;99914.84;5050225;28;20741;-74
2023/08/28 05:53:45;;;;;;;12.17;11.23;;;;;;;14.95;93.20;99927.00;5052049;28;20222;-74
2023/08/28 05:56:12;;;;;;;14.83;13.67;;;;;;;14.97;93.79;99917.28;5051835;28;20721;-74
2023/08/28 05:58:39;;;;;;;12.87;11.97;;;;;;;14.86;92.82;99941.41;5051897;28;20262;-75
2023/08/28 06:01:06;;;;;;;13.20;12.30;;;;;;;14.75;93.93;99917.41;5068179;28;20213;-74
2023/08/28 06:03:33;;;;;;;14.17;13.17;;;;;;;14.90;94.15;99919.31;5072051;28;20251;-75
2023/08/28 06:05:59;;;;;;;14.80;13.60;;;;;;;14.98;93.64;99924.22;5071961;28;20447;-74
2023/08/28 06:08:26;;;;;;;15.27;14.10;;;;;;;15.04;93.72;99922.19;5071731;28;20224;-74
2023/08/28 06:10:52;;;;;;;13.83;12.93;;;;;;;15.06;93.66;99928.22;5071600;28;20713;-75
2023/08/28 06:13:19;;;;;;;14.00;13.00;;;;;;;15.09;94.66;99925.44;5071495;28;20244;-74
2023/08/28 06:15:48;;;;;;;14.30;12.93;;;;;;;15.22;93.63;99938.88;5071892;28;20214;-74
2023/08/28 06:18:14;;;;;;;14.27;13.27;;;;;;;15.24;93.32;99951.94;5071640;28;20204;-74
2023/08/28 06:20:41;;;;;;;14.37;13.37;;;;;;;15.21;93.14;99950.31;5071280;28;20219;-75
2023/08/28 06:23:07;;;;;;;14.17;13.17;;;;;;;15.35;93.03;99954.09;5071549;28;20224;-74
2023/08/28 06:25:34;;;;;;;12.90;12.00;;;;;;;15.42;92.70;99952.88;5071298;28;20208;-75
2023/08/28 06:28:00;;;;;;;13.47;12.50;;;;;;;15.35;92.50;99969.88;5071859;28;20261;-75
2023/08/28 06:30:27;;;;;;;14.00;12.80;;;;;;;15.39;92.28;99963.53;5071692;28;20330;-75
2023/08/28 06:32:55;;;;;;;14.47;13.17;;;;;;;15.14;92.08;99972.53;5071398;28;20718;-75
2023/08/28 06:35:21;;;;;;;14.23;13.30;;;;;;;15.00;93.88;99940.78;5071574;28;20690;-75
2023/08/28 06:37:48;;;;;;;15.97;14.87;;;;;;;14.89;94.70;99923.72;5071523;28;20211;-73
2023/08/28 06:40:15;;;;;;;15.33;14.23;;;;;;;14.83;95.10;99899.50;5075354;28;20303;-74
2023/08/28 06:42:42;;;;;;;16.83;15.53;;;;;;;14.84;96.09;99873.13;5075650;28;20227;-74
2023/08/28 06:45:09;;;;;;;16.40;15.20;;;;;;;14.91;96.75;99852.72;5075640;28;20215;-74
2023/08/28 06:47:36;;;;;;;17.03;15.73;;;;;;;14.85;96.99;99855.63;5075457;28;20239;-74
2023/08/28 06:50:04;;;;;;;17.03;15.67;;;;;;;14.79;98.10;99821.75;5075548;28;20216;-73
2023/08/28 06:52:30;;;;;;;17.53;16.13;;;;;;;14.78;97.92;99818.25;5054819;28;20224;-73
2023/08/28 06:54:57;;;;;;;15.63;14.27;;;;;;;14.72;98.24;99817.69;5055478;28;20225;-73
2023/08/28 06:57:23;;;;;;;15.67;14.50;;;;;;;14.69;98.76;99821.31;5055429;28;20239;-73
2023/08/28 06:59:50;;;;;;;15.40;14.20;;;;;;;14.78;99.15;99807.72;5055320;28;20585;-73
2023/08/28 07:02:16;;;;;;;15.27;14.07;;;;;;;14.91;97.82;99815.91;5055072;28;20229;-74
2023/08/28 07:04:43;;;;;;;14.43;13.27;;;;;;;14.94;98.14;99835.94;5055631;28;20355;-73
2023/08/28 07:07:13;;;;;;;15.27;13.97;;;;;;;14.98;96.38;99842.75;5054790;28;20216;-74
2023/08/28 07:09:40;;;;;;;14.00;12.87;;;;;;;14.87;96.51;99857.25;5055195;28;20209;-74
2023/08/28 07:12:07;;;;;;;13.87;12.77;;;;;;;15.11;96.55;99862.28;5055233;28;20243;-73
2023/08/28 07:14:33;;;;;;;14.70;13.47;;;;;;;15.02;96.65;99870.59;5054925;28;20702;-73
2023/08/28 07:17:01;;;;;;;13.70;12.60;;;;;;;15.16;96.67;99862.06;5039316;28;20691;-73
2023/08/28 07:19:27;;;;;;;13.03;12.13;;;;;;;15.14;96.43;99863.91;5034995;28;20784;-74
2023/08/28 07:21:54;;;;;;;11.27;10.47;;;;;;;14.97;94.71;99891.84;5034595;28;20230;-74
2023/08/28 07:24:22;;;;;;;15.13;13.57;;;;;;;15.02;96.04;99884.56;5035037;28;20209;-73
2023/08/28 07:26:49;;;;;;;14.80;13.63;;;;;;;15.17;95.13;99897.97;5034559;28;20575;-74
2023/08/28 07:29:22;;;;;;;12.17;11.17;;;;;;;15.12;94.45;99915.72;5034873;28;20241;-74
2023/08/28 07:31:49;;;;;;;13.70;12.47;;;;;;;15.23;94.72;99929.22;5034590;28;20230;-74
2023/08/28 07:34:15;;;;;;;11.40;10.63;;;;;;;15.33;94.62;99934.91;5034834;28;20218;-74
2023/08/28 07:36:44;;;;;;;10.97;10.20;;;;;;;15.38;93.61;99957.44;5034533;28;20665;-74
2023/08/28 07:39:10;;;;;;;11.40;10.50;;;;;;;15.51;93.09;99978.75;5034588;28;20755;-74
2023/08/28 07:41:38;;;;;;;10.30;9.50;;;;;;;15.46;92.35;99989.50;5034393;28;20210;-74
2023/08/28 07:44:05;;;;;;;9.50;8.90;;;;;;;15.40;91.90;100016.09;5034342;28;20748;-74
2023/08/28 07:46:31;;;;;;;9.30;8.60;;;;;;;15.71;91.96;100006.75;5034840;28;20210;-74
2023/08/28 07:48:58;;;;;;;8.87;8.17;;;;;;;15.77;90.83;100011.75;5033822;28;20643;-74
2023/08/28 07:51:24;;;;;;;10.63;9.70;;;;;;;15.51;90.83;100023.47;5033419;28;20676;-73
2023/08/28 07:53:51;;;;;;;10.07;9.33;;;;;;;15.84;91.34;100028.97;5034713;28;20302;-74
2023/08/28 07:56:18;;;;;;;8.97;8.23;;;;;;;15.83;89.96;100050.09;5034481;28;20205;-73
2023/08/28 07:58:45;;;;;;;8.53;7.83;;;;;;;15.81;90.08;100049.31;5034754;28;20218;-73
2023/08/28 08:01:12;;;;;;;7.77;7.07;;;;;;;15.87;90.04;100062.19;5034493;28;20202;-73
2023/08/28 08:03:38;;;;;;;7.90;7.30;;;;;;;15.92;90.03;100062.81;5034332;28;20317;-73
2023/08/28 08:06:05;;;;;;;8.03;7.40;;;;;;;15.94;89.10;100074.13;5034474;28;20206;-73
2023/08/28 08:08:32;;;;;;;8.30;7.50;;;;;;;16.19;89.08;100081.69;5034151;28;20229;-73
2023/08/28 08:10:58;;;;;;;7.23;6.73;;;;;;;16.07;89.05;100091.06;5034176;28;20217;-73
2023/08/28 08:13:25;;;;;;;8.57;7.97;;;;;;;16.02;87.58;100100.94;5034187;28;20284;-73
2023/08/28 08:15:53;;;;;;;8.60;7.80;;;;;;;16.15;87.79;100109.13;5034051;28;20206;-73
2023/08/28 08:18:19;;;;;;;12.93;7.80;;;;;;;16.37;88.72;100092.28;5033924;28;20590;-73
2023/08/28 08:20:46;;;;;;;8.53;7.50;;;;;;;16.35;88.81;100094.13;5034099;28;20217;-73
2023/08/28 08:23:12;;;;;;;6.83;6.33;;;;;;;16.25;87.15;100122.69;5033878;28;20239;-73
2023/08/28 08:25:38;;;;;;;5.80;5.40;;;;;;;16.42;87.47;100117.47;5034135;28;20206;-73
2023/08/28 08:28:05;;;;;;;6.23;5.83;;;;;;;16.57;85.91;100138.75;5033746;28;20722;-73
2023/08/28 08:30:31;;;;;;;10.07;6.43;;;;;;;16.70;84.35;100176.75;5033642;28;20214;-73
2023/08/28 08:32:59;;;;;;;6.27;5.77;;;;;;;16.51;83.92;100197.88;5033542;28;20707;-73
2023/08/28 08:35:26;;;;;;;6.53;6.13;;;;;;;16.48;84.23;100196.22;5033735;28;20668;-73
2023/08/28 08:37:53;;;;;;;5.67;5.17;;;;;;;16.85;85.74;100175.19;5033423;28;20217;-73
2023/08/28 08:40:24;;;;;;;5.03;4.63;;;;;;;16.93;83.98;100207.31;5033616;28;20255;-73
2023/08/28 08:42:50;;;;;;;5.00;4.70;;;;;;;16.77;82.49;100249.34;5033545;28;20288;-73
2023/08/28 08:45:17;;;;;;;5.63;5.23;;;;;;;16.91;82.54;100248.72;5033474;28;20206;-73
2023/08/28 08:47:48;;;;;;;4.70;4.40;;;;;;;16.98;82.09;100265.09;5033456;28;20217;-73
2023/08/28 08:50:20;;;;;;;4.63;4.23;;;;;;;17.10;81.79;100269.75;5033593;28;20277;-73
2023/08/28 08:52:48;;;;;;;4.93;4.43;;;;;;;17.11;81.54;100284.66;5033328;28;20652;-73
2023/08/28 08:55:24;;;;;;;4.03;3.63;;;;;;;17.00;80.87;100323.88;5033412;28;20215;-73
2023/08/28 08:57:55;;;;;;;4.90;4.50;;;;;;;17.07;80.93;100317.41;5033159;28;20215;-73
2023/08/28 09:00:22;;;;;;;4.17;3.87;;;;;;;17.34;80.88;100320.47;5033204;28;20711;-73
2023/08/28 09:02:51;;;;;;;3.57;3.33;;;;;;;17.43;80.82;100292.78;5033041;28;20235;-73
2023/08/28 09:05:19;;;;;;;3.43;3.23;;;;;;;17.55;80.25;100329.09;5033042;28;20699;-73
2023/08/28 09:07:47;;;;;;;4.20;2.97;;;;;;;17.60;79.03;100353.50;5032934;28;20213;-73
2023/08/28 09:10:14;;;;;;;3.20;3.00;;;;;;;17.75;79.63;100361.59;5033426;28;20259;-73
2023/08/28 09:12:41;;;;;;;4.83;2.80;;;;;;;17.89;78.07;100396.09;5033277;28;20234;-74
2023/08/28 09:15:10;;;;;;;4.00;3.50;;;;;;;17.46;75.82;100451.81;5033004;28;20217;-73
2023/08/28 09:17:38;;;;;;;3.93;3.63;;;;;;;17.73;76.66;100438.22;5032792;28;20212;-75
2023/08/28 09:20:13;;;;;;;4.57;4.27;;;;;;;17.93;78.03;100418.78;5032939;28;20211;-73
2023/08/28 09:22:45;;;;;;;3.97;3.67;;;;;;;17.97;76.78;100441.47;5032868;28;20469;-73
2023/08/28 09:25:11;;;;;;;3.93;3.73;;;;;;;17.99;76.08;100446.69;5032995;28;20212;-73
2023/08/28 09:27:40;;;;;;;4.07;3.77;;;;;;;18.12;76.11;100450.44;5032801;28;20211;-73
2023/08/28 09:30:09;;;;;;;3.97;3.57;;;;;;;18.11;74.83;100475.13;5032624;28;20236;-74
2023/08/28 09:32:35;;;;;;;4.43;3.80;;;;;;;17.99;74.37;100500.34;5047776;28;20231;-74
2023/08/28 09:35:07;;;;;;;3.93;3.63;;;;;;;17.76;74.53;100505.84;5032668;28;20210;-73
2023/08/28 09:37:34;;;;;;;3.70;3.40;;;;;;;17.74;75.25;100481.31;5032603;28;20294;-73
2023/08/28 09:40:02;;;;;;;3.33;3.07;;;;;;;17.71;73.61;100495.53;5032618;28;20572;-73
2023/08/28 09:42:29;;;;;;;3.30;3.00;;;;;;;17.88;74.77;100475.38;5032112;28;20237;-74
2023/08/28 09:44:56;;;;;;;3.47;3.00;;;;;;;17.58;74.36;100489.09;5032402;28;20265;-73
2023/08/28 09:47:23;;;;;;;3.30;3.10;;;;;;;17.78;74.53;100469.66;5032200;28;20218;-73
2023/08/28 09:49:50;;;;;;;3.67;3.07;;;;;;;18.02;73.63;100479.09;5032552;28;20227;-73
2023/08/28 09:52:24;;;;;;;3.10;2.80;;;;;;;17.86;72.14;100531.78;5032172;28;20601;-73
2023/08/28 09:55:04;;;;;;;3.47;2.97;;;;;;;17.97;74.23;100506.66;5032494;28;20212;-73
2023/08/28 09:57:30;;;;;;;3.93;3.63;;;;;;;18.24;74.68;100481.50;5032274;28;20262;-73
2023/08/28 09:59:57;;;;;;;3.03;2.83;;;;;;;18.32;73.79;100486.41;5032410;28;20214;-74
2023/08/28 10:02:25;;;;;;;3.73;3.43;;;;;;;18.50;72.93;100500.47;5032068;28;20227;-74
2023/08/28 10:04:53;;;;;;;4.23;3.27;;;;;;;18.15;72.93;100516.31;5031923;28;20692;-74
2023/08/28 10:07:23;;;;;;;4.00;3.70;;;;;;;18.04;72.57;100543.25;5032282;28;20211;-73
2023/08/28 10:09:51;;;;;;;3.40;3.20;;;;;;;17.82;73.48;100530.19;5031967;28;20228;-73
2023/08/28 10:12:22;;;;;;;3.63;3.43;;;;;;;17.80;73.35;100510.06;5031774;28;20743;-73
2023/08/28 10:14:50;;;;;;;4.40;4.00;;;;;;;17.94;73.38;100514.72;5031616;28;20215;-74
2023/08/28 10:17:19;;;;;;;3.00;2.47;;;;;;;18.10;73.13;100528.91;5031736;28;20686;-73
2023/08/28 10:19:53;;;;;;;3.23;3.03;;;;;;;18.17;73.28;100524.16;5031449;28;20208;-74
2023/08/28 10:22:20;;;;;;;3.50;3.20;;;;;;;18.40;72.94;100509.81;5030306;28;20232;-74
2023/08/28 10:24:47;;;;;;;3.23;2.93;;;;;;;18.24;71.88;100546.72;5030919;28;20211;-74
2023/08/28 10:27:16;;;;;;;2.57;2.37;;;;;;;18.04;71.33;100559.09;5030916;28;20676;-73
2023/08/28 10:29:46;;;;;;;2.23;2.03;;;;;;;18.19;72.62;100539.00;5031168;28;20314;-74
2023/08/28 10:32:15;;;;;;;3.43;2.57;;;;;;;18.33;72.52;100530.38;5031202;28;20226;-73
2023/08/28 10:34:42;;;;;;;2.63;2.43;;;;;;;18.54;70.69;100541.69;5030718;28;20211;-74
2023/08/28 10:37:09;;;;;;;3.43;2.07;;;;;;;18.75;69.07;100582.06;5030378;28;20217;-74
2023/08/28 10:39:36;;;;;;;2.90;2.50;;;;;;;18.63;68.20;100615.25;5030776;28;20613;-74
2023/08/28 10:42:05;;;;;;;2.90;2.60;;;;;;;18.65;69.62;100605.47;5041000;28;20233;-74
2023/08/28 10:44:33;;;;;;;2.20;2.10;;;;;;;18.98;69.63;100601.22;5040596;28;20677;-74
2023/08/28 10:47:02;;;;;;;2.63;2.43;;;;;;;19.12;69.21;100590.75;5041328;28;20205;-74
2023/08/28 10:49:28;;;;;;;3.43;2.60;;;;;;;18.81;68.52;100625.88;5047596;28;20254;-74
2023/08/28 10:52:01;;;;;;;2.47;2.33;;;;;;;18.92;69.19;100604.19;5041746;28;20569;-74
2023/08/28 10:54:36;;;;;;;1.90;1.80;;;;;;;18.96;70.20;100592.50;5041885;28;20194;-74
2023/08/28 10:57:06;;;;;;;2.20;2.00;;;;;;;19.21;68.37;100600.88;5041859;28;20206;-74
2023/08/28 10:59:43;;;;;;;2.30;2.10;;;;;;;19.04;69.23;100595.59;5031538;28;20212;-74
2023/08/28 11:02:11;;;;;;;2.73;2.23;;;;;;;19.29;69.19;100612.88;5031387;28;20292;-75
2023/08/28 11:04:39;;;;;;;2.30;1.83;;;;;;;19.52;70.22;100590.44;5031510;28;20216;-74
2023/08/28 11:07:06;;;;;;;2.20;1.80;;;;;;;19.34;68.72;100627.53;5031334;28;20295;-74
2023/08/28 11:09:39;;;;;;;1.97;1.87;;;;;;;19.41;68.24;100636.88;5031244;28;20287;-74
2023/08/28 11:12:24;;;;;;;1.83;1.40;;;;;;;19.74;67.65;100653.72;5031126;28;20311;-74
2023/08/28 11:15:03;;;;;;;2.17;1.97;;;;;;;19.48;65.98;100692.16;5031428;28;20690;-74
2023/08/28 11:17:32;;;;;;;1.40;1.30;;;;;;;18.91;66.28;100719.72;5031141;28;20206;-74
2023/08/28 11:20:08;;;;;;;1.03;1.00;;;;;;;19.16;66.39;100715.84;5031118;28;20208;-74
2023/08/28 11:22:37;;;;;;;3.30;1.43;;;;;;;19.03;63.13;100750.00;5031387;28;20232;-74
2023/08/28 11:25:07;;;;;;;1.00;1.00;;;;;;;19.03;62.64;100824.94;5031767;28;20207;-74
2023/08/28 11:27:42;;;;;;;2.77;1.00;;;;;;;18.93;63.11;100823.69;5034773;28;20209;-74